createdAt,value
2023-07-03T00:00:26.887Z,98653.53
2023-07-03T00:05:49.564Z,98660.97
2023-07-03T00:11:12.426Z,98663.28
2023-07-03T00:16:34.759Z,98661.03
2023-07-03T00:22:00.876Z,98656.88
2023-07-03T00:27:23.007Z,98656.78
2023-07-03T00:32:45.715Z,98652.31
2023-07-03T00:38:11.390Z,98656.56
2023-07-03T00:43:35.663Z,98664.50
2023-07-03T00:48:57.669Z,98674.66
2023-07-03T00:54:20.766Z,98670.94
2023-07-03T00:59:44.091Z,98670.63
2023-07-03T01:05:21.370Z,98685.41
2023-07-03T01:10:43.997Z,98682.88
2023-07-03T01:16:08.502Z,98691.03
2023-07-03T01:21:38.766Z,98682.03
2023-07-03T01:27:05.313Z,98686.94
2023-07-03T01:32:31.875Z,98674.97
2023-07-03T01:37:57.345Z,98668.69
2023-07-03T01:43:19.628Z,98665.19
2023-07-03T01:48:42.072Z,98672.03
2023-07-03T01:54:13.643Z,98674.38
2023-07-03T01:59:37.230Z,98669.63
2023-07-03T02:05:17.835Z,98662.78
2023-07-03T02:10:40.237Z,98672.06
2023-07-03T02:16:02.563Z,98675.34
2023-07-03T02:21:24.861Z,98670.06
2023-07-03T02:26:47.608Z,98670.75
2023-07-03T02:32:11.204Z,98673.97
2023-07-03T02:37:33.709Z,98667.09
2023-07-03T02:42:57.028Z,98666.09
2023-07-03T02:48:19.662Z,98667.31
2023-07-03T02:53:44.465Z,98663.56
2023-07-03T02:59:09.566Z,98655.81
2023-07-03T03:04:32.705Z,98652.25
2023-07-03T03:09:58.878Z,98658.06
2023-07-03T03:15:21.220Z,98649.25
2023-07-03T03:20:45.622Z,98645.81
2023-07-03T03:26:08.691Z,98650.63
2023-07-03T03:31:30.705Z,98643.09
2023-07-03T03:36:58.328Z,98648.50
2023-07-03T03:42:20.587Z,98651.94
2023-07-03T03:47:42.985Z,98656.28
2023-07-03T03:53:05.591Z,98656.56
2023-07-03T03:58:27.760Z,98658.25
2023-07-03T04:03:49.864Z,98651.78
2023-07-03T04:09:12.047Z,98645.78
2023-07-03T04:14:34.646Z,98648.22
2023-07-03T04:19:56.893Z,98645.16
2023-07-03T04:25:19.021Z,98645.44
2023-07-03T04:30:42.137Z,98629.78
2023-07-03T04:36:04.319Z,98622.69
2023-07-03T04:41:28.841Z,98629.63
2023-07-03T04:46:51.206Z,98628.41
2023-07-03T04:52:13.661Z,98624.34
2023-07-03T04:57:43.843Z,98615.50
2023-07-03T05:03:06.359Z,98613.66
2023-07-03T05:08:28.197Z,98611.34
2023-07-03T05:13:50.268Z,98614.22
2023-07-03T05:19:12.584Z,98615.00
2023-07-03T05:24:35.768Z,98614.81
2023-07-03T05:29:59.638Z,98610.84
2023-07-03T05:35:21.956Z,98611.66
2023-07-03T05:40:44.168Z,98614.00
2023-07-03T05:46:06.172Z,98616.59
2023-07-03T05:51:29.924Z,98610.06
2023-07-03T05:57:07.147Z,98627.44
2023-07-03T06:02:29.114Z,98631.72
2023-07-03T06:07:51.126Z,98636.72
2023-07-03T06:13:12.932Z,98646.94
2023-07-03T06:18:34.890Z,98650.03
2023-07-03T06:23:57.039Z,98660.34
2023-07-03T06:29:19.445Z,98664.19
2023-07-03T06:34:41.807Z,98656.63
2023-07-03T06:40:11.056Z,98653.28
2023-07-03T06:45:33.008Z,98668.00
2023-07-03T06:51:04.124Z,98658.66
2023-07-03T06:56:27.052Z,98690.38
2023-07-03T07:01:49.252Z,98683.31
2023-07-03T07:07:11.650Z,98680.63
2023-07-03T07:12:33.420Z,98668.13
2023-07-03T07:17:55.568Z,98677.91
2023-07-03T07:23:17.537Z,98669.06
2023-07-03T07:28:39.519Z,98688.97
2023-07-03T07:34:01.927Z,98686.16
2023-07-03T07:39:29.172Z,98692.81
2023-07-03T07:44:51.351Z,98697.81
2023-07-03T07:50:13.817Z,98714.59
2023-07-03T07:55:38.457Z,98711.19
2023-07-03T08:01:00.955Z,98722.09
2023-07-03T08:06:23.133Z,98736.41
2023-07-03T08:11:46.015Z,98747.00
2023-07-03T08:17:08.233Z,98752.72
2023-07-03T08:22:30.460Z,98768.47
2023-07-03T08:27:52.978Z,98772.28
2023-07-03T08:33:16.874Z,98775.22
2023-07-03T08:38:42.191Z,98762.53
2023-07-03T08:44:04.811Z,98787.34
2023-07-03T08:49:28.073Z,98804.91
2023-07-03T08:54:51.347Z,98798.94
2023-07-03T09:00:14.320Z,98809.78
2023-07-03T09:05:46.821Z,98798.88
2023-07-03T09:11:09.214Z,98803.16
2023-07-03T09:16:32.680Z,98807.47
2023-07-03T09:21:59.479Z,98818.06
2023-07-03T09:27:27.067Z,98825.47
2023-07-03T09:32:49.547Z,98821.78
2023-07-03T09:38:36.785Z,98834.09
2023-07-03T09:43:58.728Z,98840.03
2023-07-03T09:49:30.404Z,98832.41
2023-07-03T09:54:52.523Z,98839.06
2023-07-03T10:00:20.734Z,98837.09
2023-07-03T10:16:37.906Z,98842.06
2023-07-03T10:22:00.031Z,98848.13
2023-07-03T10:27:23.515Z,98857.91
2023-07-03T10:32:49.843Z,98857.09
2023-07-03T10:38:26.943Z,98869.59
2023-07-03T10:44:01.069Z,98877.91
2023-07-03T10:49:37.469Z,98882.66
2023-07-03T10:55:16.854Z,98896.75
2023-07-03T11:01:04.382Z,98921.81
2023-07-03T11:06:55.187Z,98935.13
2023-07-03T11:12:42.039Z,98937.50
2023-07-03T11:24:39.556Z,98942.97
2023-07-03T11:30:02.908Z,98941.44
2023-07-03T11:40:56.960Z,98950.00
2023-07-03T11:46:23.160Z,98945.69
2023-07-03T11:51:44.977Z,98944.16
2023-07-03T11:57:33.763Z,98950.72
2023-07-03T12:03:01.554Z,98952.88
2023-07-03T12:08:23.751Z,98951.38
2023-07-03T12:13:49.161Z,98960.91
2023-07-03T12:19:12.270Z,98956.63
2023-07-03T12:24:34.488Z,98966.69
2023-07-03T12:29:57.194Z,98973.31
2023-07-03T12:35:25.730Z,98978.16
2023-07-03T12:40:47.874Z,98985.25
2023-07-03T12:46:09.666Z,98980.97
2023-07-03T12:51:36.302Z,98990.00
2023-07-03T12:56:59.462Z,98985.94
2023-07-03T13:02:24.840Z,98995.34
2023-07-03T13:07:49.640Z,98990.88
2023-07-03T13:13:19.374Z,98997.13
2023-07-03T13:18:42.226Z,99003.09
2023-07-03T13:24:11.286Z,99016.03
2023-07-03T13:29:35.466Z,99028.63
2023-07-03T13:34:57.557Z,99032.94
2023-07-03T13:40:19.801Z,99038.03
2023-07-03T13:45:41.818Z,99045.44
2023-07-03T13:51:03.598Z,99053.41
2023-07-03T13:56:25.628Z,99059.78
2023-07-03T14:01:48.611Z,99061.38
2023-07-03T14:07:11.269Z,99073.94
2023-07-03T14:12:33.430Z,99074.69
2023-07-03T14:17:55.449Z,99087.25
2023-07-03T14:23:18.597Z,99085.25
2023-07-03T14:28:41.405Z,99098.22
2023-07-03T14:34:03.131Z,99108.00
2023-07-03T14:39:25.142Z,99113.88
2023-07-03T14:44:46.928Z,99117.03
2023-07-03T14:50:10.976Z,99116.59
2023-07-03T14:55:32.759Z,99118.97
2023-07-03T15:00:55.318Z,99119.75
2023-07-03T15:06:17.385Z,99130.34
2023-07-03T15:11:40.021Z,99142.84
2023-07-03T15:17:02.717Z,99138.09
2023-07-03T15:22:25.065Z,99142.63
2023-07-03T15:27:48.116Z,99150.53
2023-07-03T15:33:10.189Z,99161.63
2023-07-03T15:38:32.415Z,99169.75
2023-07-03T15:43:54.121Z,99169.59
2023-07-03T15:49:16.574Z,99184.56
2023-07-03T15:54:39.682Z,99197.09
2023-07-03T16:00:01.831Z,99201.03
2023-07-03T16:05:27.836Z,99212.03
2023-07-03T16:10:49.392Z,99211.13
2023-07-03T16:16:19.854Z,99220.44
2023-07-03T16:21:42.889Z,99230.91
2023-07-03T16:27:05.506Z,99232.09
2023-07-03T16:32:33.277Z,99244.63
2023-07-03T16:37:59.249Z,99253.56
2023-07-03T16:43:21.116Z,99242.59
2023-07-03T16:48:43.579Z,99255.31
2023-07-03T16:54:07.476Z,99255.53
2023-07-03T16:59:30.759Z,99252.53
2023-07-03T17:04:58.229Z,99256.88
2023-07-03T17:10:20.515Z,99268.88
2023-07-03T17:15:42.635Z,99273.69
2023-07-03T17:21:04.657Z,99277.38
2023-07-03T17:26:26.678Z,99286.06
2023-07-03T17:31:48.875Z,99289.63
2023-07-03T17:37:10.973Z,99300.78
2023-07-03T17:42:33.213Z,99309.25
2023-07-03T17:47:55.863Z,99311.41
2023-07-03T17:53:18.200Z,99319.81
2023-07-03T17:58:41.137Z,99322.94
2023-07-03T18:04:04.476Z,99334.72
2023-07-03T18:09:26.422Z,99339.03
2023-07-03T18:14:48.284Z,99352.19
2023-07-03T18:20:10.555Z,99355.09
2023-07-03T18:25:35.802Z,99368.25
2023-07-03T18:31:02.982Z,99366.50
2023-07-03T18:36:25.657Z,99374.69
2023-07-03T18:41:48.259Z,99382.22
2023-07-03T18:47:14.168Z,99386.06
2023-07-03T18:52:38.211Z,99396.16
2023-07-03T18:58:01.050Z,99399.28
2023-07-03T19:03:25.465Z,99401.91
2023-07-03T19:08:49.627Z,99400.78
2023-07-03T19:14:14.989Z,99410.19
2023-07-03T19:19:37.471Z,99403.31
2023-07-03T19:25:00.343Z,99421.03
2023-07-03T19:30:22.812Z,99418.38
2023-07-03T19:35:44.682Z,99425.63
2023-07-03T19:41:07.935Z,99429.13
2023-07-03T19:46:33.090Z,99431.22
2023-07-03T19:51:55.406Z,99439.34
2023-07-03T19:57:18.978Z,99448.63
2023-07-03T20:02:42.084Z,99451.38
2023-07-03T20:08:04.761Z,99466.63
2023-07-03T20:13:26.956Z,99466.97
2023-07-03T20:18:54.428Z,99470.63
2023-07-03T20:24:16.966Z,99471.59
2023-07-03T20:29:39.035Z,99470.66
2023-07-03T20:35:02.267Z,99480.50
2023-07-03T20:40:25.797Z,99487.97
2023-07-03T20:45:58.647Z,99485.13
2023-07-03T20:51:23.890Z,99490.69
2023-07-03T20:56:45.777Z,99496.19
2023-07-03T21:02:07.596Z,99487.91
2023-07-03T21:07:29.529Z,99503.69
2023-07-03T21:12:51.372Z,99512.56
2023-07-03T21:18:13.441Z,99514.66
2023-07-03T21:23:35.449Z,99515.06
2023-07-03T21:28:57.720Z,99526.91
2023-07-03T21:34:19.580Z,99530.97
2023-07-03T21:39:41.657Z,99533.22
2023-07-03T21:45:04.371Z,99541.75
2023-07-03T21:50:27.492Z,99546.59
2023-07-03T21:55:50.402Z,99555.31
2023-07-03T22:01:26.975Z,99560.41
2023-07-03T22:06:49.436Z,99559.91
2023-07-03T22:12:12.311Z,99570.31
2023-07-03T22:17:34.303Z,99583.91
2023-07-03T22:22:56.135Z,99587.94
2023-07-03T22:28:18.080Z,99595.66
2023-07-03T22:33:40.542Z,99591.75
2023-07-03T22:39:03.358Z,99602.03
2023-07-03T22:44:25.408Z,99598.06
2023-07-03T22:49:48.938Z,99600.66
2023-07-03T22:55:11.437Z,99593.09
2023-07-03T23:00:33.711Z,99607.31
2023-07-03T23:05:56.159Z,99611.38
2023-07-03T23:11:18.408Z,99600.72
2023-07-03T23:16:40.422Z,99603.53
2023-07-03T23:22:02.328Z,99627.44
2023-07-03T23:27:25.419Z,99630.53
2023-07-03T23:32:48.039Z,99624.03
2023-07-03T23:38:11.508Z,99626.31
2023-07-03T23:43:34.413Z,99632.22
2023-07-03T23:48:56.307Z,99624.31
2023-07-03T23:54:18.225Z,99635.91
2023-07-03T23:59:40.252Z,99631.28
